createdAt,value
2019-02-06T00:01:00.478Z,100.00
2019-02-06T00:04:05.995Z,100.00
2019-02-06T00:07:11.520Z,100.00
2019-02-06T00:10:16.603Z,100.00
2019-02-06T00:13:21.855Z,100.00
2019-02-06T00:16:27.364Z,100.00
2019-02-06T00:19:32.514Z,100.00
2019-02-06T00:22:37.748Z,100.00
2019-02-06T00:25:43.241Z,100.00
2019-02-06T00:28:49.488Z,100.00
2019-02-06T00:31:54.573Z,100.00
2019-02-06T00:34:59.741Z,100.00
2019-02-06T00:38:05.571Z,100.00
2019-02-06T00:41:10.916Z,100.00
2019-02-06T00:44:16.099Z,100.00
2019-02-06T00:47:21.315Z,100.00
2019-02-06T00:50:26.490Z,100.00
2019-02-06T00:53:31.756Z,100.00
2019-02-06T00:56:36.917Z,100.00
2019-02-06T00:59:42.057Z,100.00
2019-02-06T01:02:47.428Z,100.00
2019-02-06T01:05:53.029Z,100.00
2019-02-06T01:08:58.149Z,100.00
2019-02-06T01:12:03.348Z,100.00
2019-02-06T01:15:10.418Z,100.00
2019-02-06T01:18:15.573Z,100.00
2019-02-06T01:21:20.750Z,100.00
2019-02-06T01:24:25.922Z,100.00
2019-02-06T01:27:31.120Z,100.00
2019-02-06T01:30:44.327Z,100.00
2019-02-06T01:33:49.634Z,100.00
2019-02-06T01:36:54.778Z,100.00
2019-02-06T01:39:59.963Z,100.00
2019-02-06T01:43:05.093Z,100.00
2019-02-06T01:46:10.322Z,100.00
2019-02-06T01:49:15.615Z,100.00
2019-02-06T01:52:20.854Z,100.00
2019-02-06T01:55:26.347Z,100.00
2019-02-06T01:58:31.513Z,100.00
2019-02-06T02:01:36.710Z,100.00
2019-02-06T02:04:42.172Z,100.00
2019-02-06T02:07:47.911Z,100.00
2019-02-06T02:10:53.060Z,100.00
2019-02-06T02:13:58.421Z,100.00
2019-02-06T02:17:07.420Z,100.00
2019-02-06T02:20:15.558Z,100.00
2019-02-06T02:23:20.735Z,100.00
2019-02-06T02:26:25.993Z,100.00
2019-02-06T02:29:31.137Z,100.00
2019-02-06T02:32:36.284Z,100.00
2019-02-06T02:35:41.937Z,100.00
2019-02-06T02:38:47.068Z,100.00
2019-02-06T02:41:52.292Z,100.00
2019-02-06T02:44:58.102Z,100.00
2019-02-06T02:48:03.270Z,100.00
2019-02-06T02:51:09.449Z,100.00
2019-02-06T02:54:14.651Z,100.00
2019-02-06T02:57:19.958Z,100.00
2019-02-06T03:00:31.324Z,100.00
2019-02-06T03:03:39.902Z,100.00
2019-02-06T03:06:45.557Z,100.00
2019-02-06T03:09:50.712Z,100.00
2019-02-06T03:12:55.872Z,100.00
2019-02-06T03:16:01.283Z,100.00
2019-02-06T03:19:06.396Z,100.00
2019-02-06T03:22:11.562Z,100.00
2019-02-06T03:25:17.150Z,100.00
2019-02-06T03:28:22.390Z,100.00
2019-02-06T03:31:27.687Z,100.00
2019-02-06T03:34:32.876Z,100.00
2019-02-06T03:37:38.037Z,100.00
2019-02-06T03:40:43.193Z,100.00
2019-02-06T03:43:48.387Z,100.00
2019-02-06T03:46:53.591Z,100.00
2019-02-06T03:49:58.749Z,100.00
2019-02-06T03:53:03.868Z,100.00
2019-02-06T03:56:08.983Z,100.00
2019-02-06T03:59:14.226Z,100.00
2019-02-06T04:02:19.394Z,100.00
2019-02-06T04:05:24.537Z,100.00
2019-02-06T04:08:29.671Z,100.00
2019-02-06T04:11:34.810Z,100.00
2019-02-06T04:14:40.421Z,100.00
2019-02-06T04:17:45.652Z,100.00
2019-02-06T04:20:50.807Z,100.00
2019-02-06T04:23:56.107Z,100.00
2019-02-06T04:27:01.285Z,100.00
2019-02-06T04:30:07.721Z,100.00
2019-02-06T04:33:12.862Z,100.00
2019-02-06T04:36:18.005Z,100.00
2019-02-06T04:39:23.161Z,100.00
2019-02-06T04:42:28.348Z,100.00
2019-02-06T04:45:33.458Z,100.00
2019-02-06T04:48:38.647Z,100.00
2019-02-06T04:51:43.785Z,100.00
2019-02-06T04:54:48.896Z,98.97
2019-02-06T04:57:54.124Z,98.87
2019-02-06T05:00:59.286Z,98.80
2019-02-06T05:04:04.818Z,98.78
2019-02-06T05:07:18.732Z,98.80
2019-02-06T05:10:16.841Z,98.71
2019-02-06T05:13:22.390Z,98.61
2019-02-06T05:16:27.527Z,98.40
2019-02-06T05:19:32.702Z,98.21
2019-02-06T05:22:38.080Z,97.89
2019-02-06T05:25:43.254Z,97.82
2019-02-06T05:28:48.431Z,97.76
2019-02-06T05:31:53.599Z,97.69
2019-02-06T05:34:59.791Z,97.60
2019-02-06T05:38:05.027Z,97.48
2019-02-06T05:41:10.207Z,97.29
2019-02-06T05:44:15.372Z,97.25
2019-02-06T05:47:20.468Z,96.81
2019-02-06T05:50:25.649Z,96.73
2019-02-06T05:53:30.756Z,96.55
2019-02-06T05:56:35.883Z,96.59
2019-02-06T05:59:40.970Z,96.68
2019-02-06T06:02:46.123Z,96.26
2019-02-06T06:05:51.353Z,96.16
2019-02-06T06:08:56.536Z,96.03
2019-02-06T06:12:01.745Z,94.92
2019-02-06T06:15:07.471Z,94.00
2019-02-06T06:18:12.666Z,94.19
2019-02-06T06:21:17.892Z,92.69
2019-02-06T06:24:23.005Z,93.59
2019-02-06T06:27:28.175Z,94.17
2019-02-06T06:30:33.305Z,93.93
2019-02-06T06:33:38.489Z,93.32
2019-02-06T06:36:43.652Z,93.21
2019-02-06T06:39:48.793Z,93.38
2019-02-06T06:42:54.010Z,93.61
2019-02-06T06:45:59.205Z,93.15
2019-02-06T06:49:06.407Z,92.60
2019-02-06T06:52:11.527Z,93.00
2019-02-06T06:55:16.777Z,92.68
2019-02-06T06:58:22.284Z,92.10
2019-02-06T07:01:27.444Z,91.74
2019-02-06T07:04:32.606Z,91.17
2019-02-06T07:07:37.734Z,90.11
2019-02-06T07:10:42.938Z,89.46
2019-02-06T07:13:48.090Z,89.31
2019-02-06T07:16:53.438Z,89.08
2019-02-06T07:19:58.601Z,88.51
2019-02-06T07:23:03.921Z,89.20
2019-02-06T07:26:09.032Z,87.84
2019-02-06T07:29:14.166Z,88.49
2019-02-06T07:32:19.342Z,88.25
2019-02-06T07:35:24.660Z,87.78
2019-02-06T07:38:29.894Z,87.32
2019-02-06T07:41:35.135Z,87.94
2019-02-06T07:44:41.379Z,88.91
2019-02-06T07:47:46.960Z,88.95
2019-02-06T07:50:52.072Z,88.40
2019-02-06T07:53:57.220Z,87.61
2019-02-06T07:57:02.441Z,87.91
2019-02-06T08:00:08.647Z,87.99
2019-02-06T08:03:13.845Z,87.23
2019-02-06T08:06:19.017Z,86.53
2019-02-06T08:09:24.266Z,86.08
2019-02-06T08:12:29.411Z,86.15
2019-02-06T08:15:34.548Z,86.37
2019-02-06T08:18:39.757Z,86.48
2019-02-06T08:21:44.983Z,86.41
2019-02-06T08:24:50.138Z,85.38
2019-02-06T08:27:55.267Z,85.99
2019-02-06T08:31:00.475Z,85.97
2019-02-06T08:34:05.646Z,86.46
2019-02-06T08:37:10.950Z,86.40
2019-02-06T08:40:16.780Z,86.35
2019-02-06T08:43:21.964Z,85.78
2019-02-06T08:46:27.583Z,85.64
2019-02-06T08:49:32.760Z,85.01
2019-02-06T08:52:37.892Z,84.90
2019-02-06T08:55:43.493Z,84.79
2019-02-06T08:58:48.779Z,83.85
2019-02-06T09:01:53.905Z,83.31
2019-02-06T09:04:59.014Z,82.22
2019-02-06T09:08:04.436Z,82.85
2019-02-06T09:11:09.508Z,83.15
2019-02-06T09:14:14.738Z,83.75
2019-02-06T09:17:19.842Z,81.56
2019-02-06T09:20:26.494Z,82.12
2019-02-06T09:23:31.668Z,81.36
2019-02-06T09:26:36.912Z,82.07
2019-02-06T09:29:42.059Z,81.79
2019-02-06T09:32:47.243Z,82.33
2019-02-06T09:35:52.400Z,82.24
2019-02-06T09:38:57.549Z,81.98
2019-02-06T09:42:02.703Z,81.86
2019-02-06T09:45:08.851Z,81.37
2019-02-06T09:48:13.982Z,81.14
2019-02-06T09:51:19.457Z,80.23
2019-02-06T09:54:24.967Z,79.61
2019-02-06T09:57:30.108Z,77.50
2019-02-06T10:00:37.094Z,78.40
2019-02-06T10:03:42.517Z,76.41
2019-02-06T10:06:47.672Z,76.20
2019-02-06T10:09:52.826Z,74.90
2019-02-06T10:12:58.051Z,75.21
2019-02-06T10:16:03.238Z,75.49
2019-02-06T10:19:08.356Z,76.15
2019-02-06T10:22:13.768Z,76.19
2019-02-06T10:25:18.969Z,76.24
2019-02-06T10:28:27.173Z,76.52
2019-02-06T10:31:32.879Z,75.25
2019-02-06T10:34:38.220Z,71.70
2019-02-06T10:37:43.316Z,72.78
2019-02-06T10:40:48.486Z,74.97
2019-02-06T10:43:54.061Z,73.37
2019-02-06T10:46:59.241Z,72.37
2019-02-06T10:50:04.851Z,72.37
2019-02-06T10:53:10.321Z,71.95
2019-02-06T10:56:15.424Z,73.63
2019-02-06T10:59:20.550Z,74.37
2019-02-06T11:02:25.684Z,73.56
2019-02-06T11:05:30.930Z,74.00
2019-02-06T11:08:36.120Z,74.03
2019-02-06T11:11:41.256Z,73.29
2019-02-06T11:14:46.408Z,73.03
2019-02-06T11:17:51.583Z,72.38
2019-02-06T11:20:56.791Z,72.83
2019-02-06T11:24:01.995Z,72.65
2019-02-06T11:27:07.216Z,70.94
2019-02-06T11:30:18.445Z,69.81
2019-02-06T11:33:25.021Z,70.61
2019-02-06T11:36:30.162Z,70.22
2019-02-06T11:39:35.409Z,68.65
2019-02-06T11:42:40.813Z,68.83
2019-02-06T11:45:46.048Z,69.77
2019-02-06T11:48:51.162Z,70.50
2019-02-06T11:51:56.326Z,70.19
2019-02-06T11:55:01.521Z,68.90
2019-02-06T11:58:07.104Z,69.04
2019-02-06T12:01:25.311Z,69.46
2019-02-06T12:04:30.737Z,69.26
2019-02-06T12:07:35.870Z,69.69
2019-02-06T12:10:41.105Z,69.10
2019-02-06T12:13:46.621Z,67.03
2019-02-06T12:16:51.773Z,68.53
2019-02-06T12:19:56.933Z,67.72
2019-02-06T12:23:02.151Z,68.70
2019-02-06T12:26:07.348Z,67.78
2019-02-06T12:29:12.442Z,67.57
2019-02-06T12:32:17.638Z,67.75
2019-02-06T12:35:22.939Z,68.39
2019-02-06T12:38:28.055Z,67.82
2019-02-06T12:41:33.213Z,67.62
2019-02-06T12:44:38.351Z,67.37
2019-02-06T12:47:43.616Z,67.55
2019-02-06T12:50:49.122Z,67.10
2019-02-06T12:53:54.426Z,67.58
2019-02-06T12:56:59.596Z,67.50
2019-02-06T13:00:06.900Z,66.97
2019-02-06T13:03:13.442Z,66.84
2019-02-06T13:06:18.598Z,65.61
2019-02-06T13:09:23.867Z,65.51
2019-02-06T13:12:29.043Z,65.27
2019-02-06T13:15:34.165Z,65.51
2019-02-06T13:18:39.335Z,65.49
2019-02-06T13:21:44.490Z,64.82
2019-02-06T13:24:49.601Z,65.06
2019-02-06T13:27:54.691Z,65.31
2019-02-06T13:31:01.009Z,64.36
2019-02-06T13:34:06.250Z,63.83
2019-02-06T13:37:11.380Z,64.59
2019-02-06T13:40:18.649Z,64.51
2019-02-06T13:43:23.775Z,64.60
2019-02-06T13:46:29.036Z,64.21
2019-02-06T13:49:34.360Z,64.47
2019-02-06T13:52:39.563Z,64.36
2019-02-06T13:55:44.704Z,63.83
2019-02-06T13:58:49.869Z,64.14
2019-02-06T14:01:56.052Z,63.57
2019-02-06T14:05:01.209Z,63.33
2019-02-06T14:08:12.009Z,63.10
2019-02-06T14:11:17.143Z,62.95
2019-02-06T14:14:22.307Z,63.01
2019-02-06T14:17:27.504Z,63.27
2019-02-06T14:20:33.107Z,63.78
2019-02-06T14:23:54.282Z,63.91
2019-02-06T14:27:40.645Z,64.04
2019-02-06T14:31:22.720Z,63.27
2019-02-06T14:35:06.792Z,64.20
2019-02-06T14:38:43.778Z,64.49
2019-02-06T14:42:35.075Z,64.58
2019-02-06T14:46:31.176Z,64.78
2019-02-06T14:49:53.679Z,65.18
2019-02-06T14:53:40.812Z,65.65
2019-02-06T14:57:48.335Z,66.04
2019-02-06T15:01:52.928Z,66.65
2019-02-06T15:05:26.962Z,66.47
2019-02-06T15:09:22.489Z,68.69
2019-02-06T15:12:49.789Z,69.50
2019-02-06T15:16:18.247Z,69.57
2019-02-06T15:19:44.589Z,69.13
2019-02-06T15:23:32.863Z,70.02
2019-02-06T15:26:57.192Z,69.39
2019-02-06T15:30:23.069Z,69.90
2019-02-06T15:34:11.198Z,70.59
2019-02-06T15:37:43.139Z,70.90
2019-02-06T15:41:14.316Z,71.07
2019-02-06T15:44:44.605Z,70.66
2019-02-06T15:48:02.667Z,72.13
2019-02-06T15:51:49.691Z,73.07
2019-02-06T15:55:32.427Z,72.91
2019-02-06T15:59:06.186Z,72.96
2019-02-06T16:02:43.586Z,74.66
2019-02-06T16:06:23.493Z,75.83
2019-02-06T16:10:05.179Z,76.03
2019-02-06T16:13:59.370Z,77.19
2019-02-06T16:17:41.442Z,78.55
2019-02-06T16:21:21.922Z,79.29
2019-02-06T16:25:08.781Z,80.40
2019-02-06T16:29:10.512Z,80.93
2019-02-06T16:32:41.357Z,81.46
2019-02-06T16:36:06.235Z,82.59
2019-02-06T16:39:52.338Z,83.51
2019-02-06T16:43:34.510Z,84.70
2019-02-06T16:47:25.851Z,85.03
2019-02-06T16:50:42.406Z,84.30
2019-02-06T16:54:24.097Z,84.51
2019-02-06T16:57:51.905Z,83.69
2019-02-06T17:01:41.213Z,83.92
2019-02-06T17:05:30.944Z,84.56
2019-02-06T17:09:12.454Z,85.03
2019-02-06T17:13:01.560Z,84.91
2019-02-06T17:16:54.433Z,85.48
2019-02-06T17:20:26.165Z,86.00
2019-02-06T17:24:05.789Z,85.33
2019-02-06T17:27:51.365Z,85.62
2019-02-06T17:31:33.369Z,86.00
2019-02-06T17:35:16.941Z,86.54
2019-02-06T17:38:45.646Z,86.92
2019-02-06T17:42:15.843Z,87.58
2019-02-06T17:45:54.475Z,88.64
2019-02-06T17:49:36.736Z,89.55
2019-02-06T17:53:26.192Z,90.47
2019-02-06T17:56:31.319Z,91.44
2019-02-06T17:59:36.605Z,91.36
2019-02-06T18:02:41.767Z,91.70
2019-02-06T18:05:47.030Z,92.34
2019-02-06T18:08:56.798Z,92.64
2019-02-06T18:11:59.488Z,92.59
2019-02-06T18:15:05.175Z,92.67
2019-02-06T18:18:10.524Z,93.00
2019-02-06T18:21:15.721Z,93.02
2019-02-06T18:24:20.980Z,93.05
2019-02-06T18:27:26.165Z,93.02
2019-02-06T18:30:31.773Z,92.92
2019-02-06T18:33:36.889Z,93.00
2019-02-06T18:36:42.127Z,93.11
2019-02-06T18:39:47.371Z,93.32
2019-02-06T18:42:53.987Z,93.84
2019-02-06T18:45:59.249Z,94.03
2019-02-06T18:49:04.910Z,93.83
2019-02-06T18:52:20.020Z,93.63
2019-02-06T18:55:17.190Z,93.75
2019-02-06T18:58:22.457Z,93.93
2019-02-06T19:01:27.714Z,93.89
2019-02-06T19:04:32.982Z,93.78
2019-02-06T19:07:38.230Z,94.05
2019-02-06T19:10:43.504Z,94.61
2019-02-06T19:13:49.364Z,94.97
2019-02-06T19:16:54.467Z,95.05
2019-02-06T19:19:59.660Z,94.91
2019-02-06T19:23:05.463Z,95.01
2019-02-06T19:26:11.733Z,95.33
2019-02-06T19:29:16.887Z,94.85
2019-02-06T19:32:22.355Z,95.21
2019-02-06T19:35:27.626Z,95.58
2019-02-06T19:38:32.955Z,95.92
2019-02-06T19:41:38.762Z,96.19
2019-02-06T19:44:44.326Z,96.40
2019-02-06T19:47:49.990Z,96.48
2019-02-06T19:50:55.585Z,96.61
2019-02-06T19:54:00.799Z,96.68
2019-02-06T19:57:06.073Z,96.77
2019-02-06T20:00:15.266Z,96.55
2019-02-06T20:03:20.475Z,96.53
2019-02-06T20:06:29.399Z,96.42
2019-02-06T20:09:36.331Z,96.41
2019-02-06T20:12:42.374Z,96.46
2019-02-06T20:15:47.637Z,96.29
2019-02-06T20:18:53.141Z,96.37
2019-02-06T20:21:58.327Z,96.32
2019-02-06T20:25:04.343Z,95.94
2019-02-06T20:28:09.693Z,95.38
2019-02-06T20:31:14.864Z,95.66
2019-02-06T20:34:20.039Z,96.23
2019-02-06T20:37:25.440Z,96.30
2019-02-06T20:40:32.881Z,96.16
2019-02-06T20:43:38.002Z,96.67
2019-02-06T20:46:43.151Z,96.72
2019-02-06T20:49:48.271Z,96.83
2019-02-06T20:52:53.452Z,97.24
2019-02-06T20:55:59.090Z,97.39
2019-02-06T20:59:04.567Z,97.67
2019-02-06T21:02:09.914Z,97.84
2019-02-06T21:05:15.238Z,97.95
2019-02-06T21:08:20.399Z,97.76
2019-02-06T21:11:25.645Z,97.61
2019-02-06T21:14:30.888Z,97.62
2019-02-06T21:17:36.146Z,97.50
2019-02-06T21:20:41.832Z,97.66
2019-02-06T21:23:47.128Z,97.66
2019-02-06T21:26:52.318Z,98.02
2019-02-06T21:29:57.469Z,97.87
2019-02-06T21:33:02.677Z,97.67
2019-02-06T21:36:07.928Z,97.69
2019-02-06T21:39:13.098Z,97.33
2019-02-06T21:42:18.574Z,97.43
2019-02-06T21:45:23.727Z,97.50
2019-02-06T21:48:29.480Z,97.44
2019-02-06T21:51:34.637Z,97.46
2019-02-06T21:54:40.208Z,97.60
2019-02-06T21:57:45.502Z,97.51
2019-02-06T22:00:50.623Z,97.81
2019-02-06T22:03:55.776Z,98.35
2019-02-06T22:07:00.949Z,98.50
2019-02-06T22:10:07.578Z,98.77
2019-02-06T22:13:12.698Z,98.77
2019-02-06T22:16:17.904Z,98.63
2019-02-06T22:19:23.055Z,98.92
2019-02-06T22:22:28.176Z,99.18
2019-02-06T22:25:33.347Z,98.96
2019-02-06T22:28:38.497Z,98.96
2019-02-06T22:31:43.647Z,99.17
2019-02-06T22:34:49.295Z,99.11
2019-02-06T22:37:54.395Z,99.00
2019-02-06T22:40:59.574Z,99.04
2019-02-06T22:44:06.813Z,99.13
2019-02-06T22:47:13.147Z,99.08
2019-02-06T22:50:20.110Z,99.16
2019-02-06T22:53:25.294Z,99.15
2019-02-06T22:56:30.459Z,99.18
2019-02-06T22:59:35.590Z,99.16
2019-02-06T23:02:40.763Z,99.30
2019-02-06T23:05:45.900Z,99.39
2019-02-06T23:08:52.256Z,99.52
2019-02-06T23:11:57.414Z,99.52
2019-02-06T23:15:02.860Z,99.25
2019-02-06T23:18:09.436Z,99.10
2019-02-06T23:21:14.572Z,99.25
2019-02-06T23:24:19.748Z,99.14
2019-02-06T23:27:24.924Z,99.27
2019-02-06T23:30:30.099Z,99.37
2019-02-06T23:33:35.276Z,99.42
2019-02-06T23:36:40.439Z,99.48
2019-02-06T23:39:45.614Z,99.56
2019-02-06T23:42:50.707Z,99.54
2019-02-06T23:45:55.875Z,99.64
2019-02-06T23:49:01.009Z,99.69
2019-02-06T23:52:06.277Z,99.14
2019-02-06T23:55:11.817Z,99.14
2019-02-06T23:58:17.052Z,98.83
